Time;durP1;ratioP1;P1;durP2;ratioP2;P2;SDS_P1;SDS_P2;PMS_P1;PMS_P2;Temp;Humidity;BMP_temperature;BMP_pressure;BME280_temperature;BME280_humidity;BME280_pressure;Samples;Min_cycle;Max_cycle;Signal;HPM_P1;HPM_P2
2022/03/11 03:46:08;;;;;;;;;;;-0.50;55.70;;;;;;6279808;22;19919;-80
2022/03/11 03:48:34;;;;;;;;;;;-0.50;55.90;;;;;;6268598;22;19902;-79
2022/03/11 03:51:00;;;;;;;;;;;-0.50;55.80;;;;;;6293005;22;19903;-80
2022/03/11 03:53:25;;;;;;;;;;;-0.50;55.80;;;;;;6319486;22;19898;-80
2022/03/11 03:55:51;;;;;;;;;;;-0.50;56.00;;;;;;6320224;22;19910;-79
2022/03/11 03:58:17;;;;;;;;;;;-0.60;56.00;;;;;;6290601;22;19911;-80
2022/03/11 04:00:42;;;;;;;;;;;-0.60;56.20;;;;;;6264869;22;19921;-81
2022/03/11 04:03:08;;;;;;;;;;;-0.50;56.00;;;;;;6316569;22;19899;-79
2022/03/11 04:05:33;;;;;;;;;;;-0.50;56.20;;;;;;6290421;22;19929;-79
2022/03/11 04:07:59;;;;;;;;;;;-0.60;56.30;;;;;;6316336;22;19898;-81
2022/03/11 04:10:25;;;;;;;;;;;-0.60;56.20;;;;;;6316394;22;19918;-81
2022/03/11 04:12:50;;;;;;;;;;;-0.60;56.20;;;;;;6265120;22;19903;-79
2022/03/11 04:15:16;;;;;;;;;;;-0.60;56.60;;;;;;6290514;22;19919;-80
2022/03/11 04:17:42;;;;;;;;;;;-0.70;56.50;;;;;;6290104;22;19958;-80
2022/03/11 04:20:08;;;;;;;;;;;-0.70;56.70;;;;;;6290422;22;20198;-81
2022/03/11 04:22:39;;;;;;;;;;;-0.70;56.80;;;;;;6290715;22;19903;-80
2022/03/11 04:25:05;;;;;;;;;;;-0.70;56.80;;;;;;6290670;22;19906;-81
2022/03/11 04:27:30;;;;;;;;;;;-0.70;56.80;;;;;;6265046;22;19909;-81
2022/03/11 04:29:56;;;;;;;;;;;-0.80;56.70;;;;;;6264939;22;19903;-80
2022/03/11 04:32:22;;;;;;;;;;;-0.80;56.90;;;;;;6316365;22;19906;-80
2022/03/11 04:34:48;;;;;;;;;;;-0.80;57.00;;;;;;6316461;22;20194;-80
2022/03/11 04:37:13;;;;;;;;;;;-0.90;57.10;;;;;;6290521;22;19911;-81
2022/03/11 04:39:39;;;;;;;;;;;-0.90;57.10;;;;;;6316522;22;19899;-81
2022/03/11 04:42:09;;;;;;;;;;;-0.90;57.10;;;;;;6265484;22;19945;-81
2022/03/11 04:44:35;;;;;;;;;;;-0.90;57.00;;;;;;6265427;22;19917;-80
2022/03/11 04:47:00;;;;;;;;;;;-0.90;56.90;;;;;;6289835;22;19929;-80
2022/03/11 04:49:27;;;;;;;;;;;-0.90;56.80;;;;;;6290365;22;19899;-80
2022/03/11 04:51:52;;;;;;;;;;;-0.90;56.90;;;;;;6266113;22;19903;-80
2022/03/11 04:54:18;;;;;;;;;;;-0.90;56.90;;;;;;6266863;22;19910;-80
2022/03/11 04:56:44;;;;;;;;;;;-0.90;56.80;;;;;;6292248;22;19898;-80
2022/03/11 04:59:09;;;;;;;;;;;-1.00;56.80;;;;;;6291993;22;19894;-80
2022/03/11 05:01:35;;;;;;;;;;;-1.00;56.80;;;;;;6291916;22;19918;-80
2022/03/11 05:04:01;;;;;;;;;;;-1.00;56.80;;;;;;6266572;22;19910;-79
2022/03/11 05:06:26;;;;;;;;;;;-1.00;56.80;;;;;;6292165;22;19926;-80
2022/03/11 05:08:52;;;;;;;;;;;-1.00;56.90;;;;;;6266291;22;20327;-80
2022/03/11 05:11:17;;;;;;;;;;;-1.10;57.10;;;;;;6266702;22;19910;-80
2022/03/11 05:13:43;;;;;;;;;;;-1.10;57.20;;;;;;6318108;22;20233;-80
2022/03/11 05:16:09;;;;;;;;;;;-1.00;57.20;;;;;;6292013;22;19903;-80
2022/03/11 05:18:34;;;;;;;;;;;-1.10;57.10;;;;;;6292044;22;19902;-80
2022/03/11 05:21:03;;;;;;;;;;;-1.10;57.20;;;;;;6292467;22;20226;-79
2022/03/11 05:23:29;;;;;;;;;;;-1.10;57.10;;;;;;6291822;22;19932;-81
2022/03/11 05:25:54;;;;;;;;;;;-1.00;57.10;;;;;;6266216;22;19954;-81
2022/03/11 05:28:21;;;;;;;;;;;-1.10;57.30;;;;;;6292067;22;19899;-80
2022/03/11 05:30:47;;;;;;;;;;;-1.10;57.30;;;;;;6291621;22;19955;-80
2022/03/11 05:33:12;;;;;;;;;;;-1.10;57.10;;;;;;6317893;22;20129;-81
2022/03/11 05:35:38;;;;;;;;;;;-1.10;57.20;;;;;;6291727;22;19954;-81
2022/03/11 05:38:04;;;;;;;;;;;-1.10;57.20;;;;;;6291736;22;19903;-80
2022/03/11 05:40:29;;;;;;;;;;;-1.10;57.20;;;;;;6266197;22;20200;-81
2022/03/11 05:42:55;;;;;;;;;;;-1.10;57.30;;;;;;6291781;22;20129;-80
2022/03/11 05:45:21;;;;;;;;;;;-1.10;57.20;;;;;;6266201;22;19909;-80
2022/03/11 05:47:46;;;;;;;;;;;-1.10;57.10;;;;;;6291516;22;19913;-82
2022/03/11 05:50:12;;;;;;;;;;;-1.00;57.00;;;;;;6291954;22;19950;-80
2022/03/11 05:52:39;;;;;;;;;;;-0.90;57.00;;;;;;6314914;22;19907;-79
2022/03/11 05:55:05;;;;;;;;;;;-0.90;57.00;;;;;;6291572;22;19922;-80
2022/03/11 05:57:31;;;;;;;;;;;-0.90;56.90;;;;;;6291746;22;19907;-79
2022/03/11 05:59:57;;;;;;;;;;;-0.90;56.70;;;;;;6317456;22;19926;-81
2022/03/11 06:02:23;;;;;;;;;;;-0.80;56.90;;;;;;6291134;22;20102;-80
2022/03/11 06:04:50;;;;;;;;;;;-0.80;56.60;;;;;;6291499;22;19902;-79
2022/03/11 06:07:15;;;;;;;;;;;-0.70;56.40;;;;;;6317420;22;19951;-80
2022/03/11 06:09:41;;;;;;;;;;;-0.60;56.30;;;;;;6291681;22;19928;-80
2022/03/11 06:12:07;;;;;;;;;;;-0.60;56.00;;;;;;6287436;22;19903;-80
2022/03/11 06:14:33;;;;;;;;;;;-0.60;56.00;;;;;;6317125;22;19946;-80
2022/03/11 06:16:58;;;;;;;;;;;-0.60;56.00;;;;;;6291471;22;19925;-80
2022/03/11 06:19:24;;;;;;;;;;;-0.60;55.80;;;;;;6291481;22;19905;-79
2022/03/11 06:21:50;;;;;;;;;;;-0.50;55.50;;;;;;6317311;22;19917;-79
2022/03/11 06:24:15;;;;;;;;;;;-0.40;55.40;;;;;;6290587;22;19899;-80
2022/03/11 06:26:41;;;;;;;;;;;-0.30;55.50;;;;;;6318805;22;19963;-80
2022/03/11 06:29:07;;;;;;;;;;;-0.30;54.60;;;;;;6291183;22;19924;-79
2022/03/11 06:31:33;;;;;;;;;;;-0.30;54.50;;;;;;6265677;22;19918;-81
2022/03/11 06:33:59;;;;;;;;;;;-0.20;54.50;;;;;;6291117;22;19899;-81
2022/03/11 06:36:28;;;;;;;;;;;-0.20;54.30;;;;;;6291215;22;19915;-81
2022/03/11 06:38:54;;;;;;;;;;;-0.20;54.00;;;;;;6265619;22;19902;-79
2022/03/11 06:41:21;;;;;;;;;;;-0.10;54.10;;;;;;6316594;22;19910;-81
2022/03/11 06:43:46;;;;;;;;;;;0.00;53.90;;;;;;6291019;22;19899;-80
2022/03/11 06:46:18;;;;;;;;;;;0.10;53.70;;;;;;6291629;22;19918;-81
2022/03/11 06:48:43;;;;;;;;;;;0.10;53.20;;;;;;6290249;22;20108;-81
2022/03/11 06:51:11;;;;;;;;;;;0.20;53.10;;;;;;6291051;22;19899;-79
2022/03/11 06:53:37;;;;;;;;;;;0.30;53.00;;;;;;6264491;22;20080;-80
2022/03/11 06:56:04;;;;;;;;;;;0.30;52.90;;;;;;6315604;22;19960;-80
2022/03/11 06:58:30;;;;;;;;;;;0.40;52.30;;;;;;6264491;22;19923;-80
2022/03/11 07:00:56;;;;;;;;;;;0.40;51.80;;;;;;6289170;22;19911;-80
2022/03/11 07:03:22;;;;;;;;;;;0.50;52.00;;;;;;6264230;22;20137;-79
2022/03/11 07:05:48;;;;;;;;;;;0.50;51.70;;;;;;6264341;22;19922;-82
2022/03/11 07:08:15;;;;;;;;;;;0.60;51.30;;;;;;6289974;22;19914;-81
2022/03/11 07:10:41;;;;;;;;;;;0.60;51.10;;;;;;6264292;22;20214;-81
2022/03/11 07:13:07;;;;;;;;;;;0.60;50.50;;;;;;6264243;22;19956;-81
2022/03/11 07:15:32;;;;;;;;;;;0.60;50.90;;;;;;6289352;22;20191;-81
2022/03/11 07:17:58;;;;;;;;;;;0.70;50.80;;;;;;6263974;22;19934;-80
2022/03/11 07:20:24;;;;;;;;;;;0.80;50.60;;;;;;6289380;22;19918;-81
2022/03/11 07:22:50;;;;;;;;;;;0.80;50.20;;;;;;6289705;22;19895;-80
2022/03/11 07:25:17;;;;;;;;;;;0.80;50.60;;;;;;6315379;22;20257;-79
2022/03/11 07:27:45;;;;;;;;;;;0.90;50.40;;;;;;6263980;22;19903;-80
2022/03/11 07:30:11;;;;;;;;;;;1.00;50.40;;;;;;6289482;22;19922;-80
2022/03/11 07:32:37;;;;;;;;;;;1.20;50.20;;;;;;6289399;22;20152;-79
2022/03/11 07:35:03;;;;;;;;;;;1.30;50.00;;;;;;6289180;22;19903;-80
2022/03/11 07:37:29;;;;;;;;;;;1.30;49.30;;;;;;6315788;22;19940;-81
2022/03/11 07:39:54;;;;;;;;;;;1.40;48.00;;;;;;6264564;22;19902;-80
2022/03/11 07:42:20;;;;;;;;;;;1.40;48.10;;;;;;6290170;22;19948;-80
2022/03/11 07:44:49;;;;;;;;;;;1.30;47.70;;;;;;6290708;22;19909;-80
2022/03/11 07:47:14;;;;;;;;;;;1.40;47.80;;;;;;6289316;22;19910;-81
2022/03/11 07:49:40;;;;;;;;;;;1.50;47.60;;;;;;6289776;22;19903;-81
2022/03/11 07:52:06;;;;;;;;;;;1.50;46.90;;;;;;6264208;22;19911;-80
2022/03/11 07:54:32;;;;;;;;;;;1.60;46.90;;;;;;6290080;22;19954;-81
2022/03/11 07:56:57;;;;;;;;;;;1.70;46.60;;;;;;6290192;22;19918;-81
2022/03/11 07:59:23;;;;;;;;;;;1.80;46.20;;;;;;6257713;22;19903;-80
2022/03/11 08:01:49;;;;;;;;;;;1.80;46.20;;;;;;6232765;22;19955;-80
2022/03/11 08:04:16;;;;;;;;;;;1.90;46.30;;;;;;6232406;22;19958;-80
2022/03/11 08:06:42;;;;;;;;;;;1.90;46.20;;;;;;6232680;22;19911;-81
2022/03/11 08:09:08;;;;;;;;;;;2.00;46.00;;;;;;6258186;22;19955;-81
2022/03/11 08:11:34;;;;;;;;;;;2.10;45.80;;;;;;6232798;22;19903;-81
2022/03/11 08:13:59;;;;;;;;;;;2.20;46.60;;;;;;6258080;22;19899;-81
2022/03/11 08:16:25;;;;;;;;;;;2.40;46.50;;;;;;6258185;22;20104;-81
2022/03/11 08:18:51;;;;;;;;;;;2.50;45.30;;;;;;6257558;22;20162;-80
2022/03/11 08:21:16;;;;;;;;;;;2.50;44.80;;;;;;6258073;22;20237;-81
2022/03/11 08:23:43;;;;;;;;;;;2.60;45.00;;;;;;6258132;22;19903;-80
2022/03/11 08:26:10;;;;;;;;;;;2.70;45.40;;;;;;6259379;22;19899;-81
2022/03/11 08:28:36;;;;;;;;;;;2.80;45.00;;;;;;6235319;22;20221;-80
2022/03/11 08:31:02;;;;;;;;;;;2.90;44.50;;;;;;6279341;22;19903;-81
2022/03/11 08:33:30;;;;;;;;;;;2.90;44.00;;;;;;6291786;22;19898;-80
2022/03/11 08:35:57;;;;;;;;;;;3.00;44.40;;;;;;6318476;22;20021;-81
2022/03/11 08:38:23;;;;;;;;;;;3.10;44.50;;;;;;6292556;22;20202;-80
2022/03/11 08:40:49;;;;;;;;;;;3.20;44.50;;;;;;6317570;22;19956;-81
2022/03/11 08:43:14;;;;;;;;;;;3.50;44.60;;;;;;6266436;22;19918;-81
2022/03/11 08:45:41;;;;;;;;;;;3.70;44.50;;;;;;6291305;22;20222;-81
2022/03/11 08:48:07;;;;;;;;;;;3.90;43.50;;;;;;6266767;22;19922;-81
2022/03/11 08:50:33;;;;;;;;;;;3.80;42.70;;;;;;6291894;22;19903;-80
2022/03/11 08:52:59;;;;;;;;;;;3.70;42.90;;;;;;6266610;22;20075;-79
2022/03/11 08:55:24;;;;;;;;;;;3.80;43.20;;;;;;6291699;22;19910;-82
2022/03/11 08:57:51;;;;;;;;;;;3.90;42.60;;;;;;6265892;22;19903;-80
2022/03/11 09:00:21;;;;;;;;;;;3.90;42.60;;;;;;6291538;22;20281;-80
2022/03/11 09:02:47;;;;;;;;;;;3.80;41.80;;;;;;6291359;22;19903;-81
2022/03/11 09:05:15;;;;;;;;;;;3.70;41.90;;;;;;6291436;22;20084;-81
2022/03/11 09:07:40;;;;;;;;;;;3.70;42.20;;;;;;6266395;22;19941;-81
2022/03/11 09:10:07;;;;;;;;;;;3.80;42.30;;;;;;6317440;22;19906;-81
2022/03/11 09:12:33;;;;;;;;;;;3.80;42.00;;;;;;6291622;22;20094;-81
2022/03/11 09:15:00;;;;;;;;;;;3.80;41.90;;;;;;6317657;22;19956;-80
2022/03/11 09:17:26;;;;;;;;;;;3.90;41.70;;;;;;6266046;22;20103;-82
2022/03/11 09:19:51;;;;;;;;;;;4.10;41.80;;;;;;6317437;22;19910;-81
2022/03/11 09:22:17;;;;;;;;;;;4.10;41.00;;;;;;6265936;22;19914;-80
2022/03/11 09:24:44;;;;;;;;;;;4.20;42.00;;;;;;6291390;22;20244;-80
2022/03/11 09:27:11;;;;;;;;;;;4.20;40.80;;;;;;6291881;22;19902;-82
2022/03/11 09:29:37;;;;;;;;;;;4.30;40.70;;;;;;6317279;22;19921;-80
2022/03/11 09:32:03;;;;;;;;;;;4.20;40.70;;;;;;6317310;22;19903;-82
2022/03/11 09:34:29;;;;;;;;;;;4.20;40.20;;;;;;6317049;22;19962;-80
2022/03/11 09:36:55;;;;;;;;;;;4.30;41.00;;;;;;6291018;22;20091;-81
2022/03/11 09:39:21;;;;;;;;;;;4.50;40.60;;;;;;6316137;22;19903;-81
2022/03/11 09:41:47;;;;;;;;;;;4.60;40.00;;;;;;6316004;22;19909;-81
2022/03/11 09:44:14;;;;;;;;;;;4.60;40.20;;;;;;6314958;22;19899;-81
2022/03/11 09:46:41;;;;;;;;;;;4.70;40.60;;;;;;6314989;22;19907;-81
2022/03/11 09:49:07;;;;;;;;;;;4.80;40.40;;;;;;6264336;22;20276;-81
2022/03/11 09:51:34;;;;;;;;;;;4.80;40.60;;;;;;6315806;22;19898;-81
2022/03/11 09:54:00;;;;;;;;;;;5.00;39.90;;;;;;6316041;22;19929;-81
2022/03/11 09:56:26;;;;;;;;;;;4.90;40.40;;;;;;6290050;22;20137;-81
2022/03/11 09:58:53;;;;;;;;;;;4.90;40.00;;;;;;6290142;22;19898;-81
2022/03/11 10:01:18;;;;;;;;;;;5.00;39.90;;;;;;6290160;22;19903;-82
2022/03/11 10:03:44;;;;;;;;;;;5.00;40.00;;;;;;6290142;22;19906;-81
2022/03/11 10:06:09;;;;;;;;;;;5.20;39.90;;;;;;6264165;22;20006;-80
2022/03/11 10:08:36;;;;;;;;;;;5.30;39.00;;;;;;6264288;22;19911;-81
2022/03/11 10:11:21;;;;;;;;;;;5.30;39.00;;;;;;6284598;22;19925;-81
2022/03/11 10:13:52;;;;;;;;;;;5.30;39.10;;;;;;6316821;22;19946;-81
2022/03/11 10:16:19;;;;;;;;;;;5.50;39.80;;;;;;6290770;22;20202;-81
2022/03/11 10:18:57;;;;;;;;;;;5.60;39.50;;;;;;6290953;22;20198;-81
2022/03/11 10:21:27;;;;;;;;;;;5.80;39.40;;;;;;6290952;22;19903;-82
2022/03/11 10:23:53;;;;;;;;;;;5.80;37.90;;;;;;6316681;22;19899;-80
2022/03/11 10:26:39;;;;;;;;;;;5.80;38.00;;;;;;6316654;22;19899;-79
2022/03/11 10:29:05;;;;;;;;;;;6.00;38.20;;;;;;6290895;22;19902;-82
2022/03/11 10:31:35;;;;;;;;;;;6.10;37.90;;;;;;6290821;22;19906;-81
2022/03/11 10:34:15;;;;;;;;;;;6.10;37.70;;;;;;6291024;22;19956;-82
2022/03/11 10:36:49;;;;;;;;;;;6.10;38.60;;;;;;6290195;22;19940;-81
2022/03/11 10:39:19;;;;;;;;;;;6.20;38.00;;;;;;6316747;22;19899;-80
2022/03/11 10:41:46;;;;;;;;;;;6.40;37.30;;;;;;6290026;22;19907;-80
2022/03/11 10:44:12;;;;;;;;;;;6.40;37.30;;;;;;6265307;22;19945;-80
2022/03/11 10:46:39;;;;;;;;;;;6.40;36.70;;;;;;6315282;22;19951;-80
2022/03/11 10:49:04;;;;;;;;;;;6.40;37.00;;;;;;6290127;22;19902;-82
2022/03/11 10:51:32;;;;;;;;;;;6.20;36.60;;;;;;6290416;22;19934;-80
2022/03/11 10:53:58;;;;;;;;;;;6.10;38.30;;;;;;6315544;22;19911;-81
2022/03/11 10:56:33;;;;;;;;;;;6.30;38.00;;;;;;6316068;22;19899;-80
2022/03/11 10:58:59;;;;;;;;;;;6.40;36.70;;;;;;6290052;22;19903;-79
2022/03/11 11:01:57;;;;;;;;;;;6.60;36.70;;;;;;6316148;22;19925;-82
2022/03/11 11:04:24;;;;;;;;;;;6.80;36.40;;;;;;6203452;23;19914;-81
2022/03/11 11:06:50;;;;;;;;;;;6.70;35.80;;;;;;6202488;23;19900;-81
2022/03/11 11:09:17;;;;;;;;;;;6.60;36.30;;;;;;6228683;23;19902;-82
2022/03/11 11:11:43;;;;;;;;;;;6.60;36.00;;;;;;6203142;23;19899;-82
2022/03/11 11:14:09;;;;;;;;;;;6.70;36.30;;;;;;6203024;23;20023;-81
2022/03/11 11:16:40;;;;;;;;;;;6.80;36.10;;;;;;6203129;23;19903;-81
2022/03/11 11:19:19;;;;;;;;;;;6.90;35.50;;;;;;6202312;23;19900;-81
2022/03/11 11:21:46;;;;;;;;;;;7.00;35.30;;;;;;6202676;23;20238;-81
2022/03/11 11:24:16;;;;;;;;;;;7.00;35.30;;;;;;6203161;23;20150;-81
2022/03/11 11:26:46;;;;;;;;;;;7.00;35.20;;;;;;6202711;23;19903;-81
2022/03/11 11:29:12;;;;;;;;;;;7.00;35.00;;;;;;6228214;23;20142;-81
2022/03/11 11:31:40;;;;;;;;;;;7.00;35.30;;;;;;6203071;23;19899;-80
2022/03/11 11:34:23;;;;;;;;;;;7.00;34.80;;;;;;6202800;23;19907;-80
2022/03/11 11:36:49;;;;;;;;;;;7.00;35.70;;;;;;6198707;23;19918;-81
2022/03/11 11:39:14;;;;;;;;;;;7.20;35.60;;;;;;6217883;22;19922;-81
2022/03/11 11:41:40;;;;;;;;;;;7.30;35.10;;;;;;6289871;22;19910;-81
2022/03/11 11:44:08;;;;;;;;;;;7.50;36.00;;;;;;6290153;22;20218;-81
2022/03/11 11:46:35;;;;;;;;;;;7.70;34.80;;;;;;6289597;22;19907;-82
2022/03/11 11:49:01;;;;;;;;;;;7.60;35.00;;;;;;6317220;22;19940;-82
2022/03/11 11:51:33;;;;;;;;;;;7.60;34.70;;;;;;6289997;22;20194;-80
2022/03/11 11:54:09;;;;;;;;;;;7.80;34.30;;;;;;6315819;22;19906;-81
2022/03/11 11:56:36;;;;;;;;;;;7.70;34.50;;;;;;6266560;22;20107;-81
2022/03/11 11:59:09;;;;;;;;;;;7.60;34.00;;;;;;6290203;22;20129;-82
2022/03/11 12:01:44;;;;;;;;;;;7.50;34.60;;;;;;6315935;22;19903;-82
2022/03/11 12:04:19;;;;;;;;;;;7.70;35.20;;;;;;6315875;22;19905;-82
2022/03/11 12:06:55;;;;;;;;;;;7.80;33.80;;;;;;6315810;22;19899;-82
2022/03/11 12:09:39;;;;;;;;;;;7.70;34.50;;;;;;6316186;22;20125;-81
2022/03/11 12:12:05;;;;;;;;;;;7.80;34.50;;;;;;6290180;22;19950;-82
2022/03/11 12:14:31;;;;;;;;;;;7.90;33.70;;;;;;6316024;22;20090;-81
2022/03/11 12:17:04;;;;;;;;;;;8.00;34.10;;;;;;6290414;22;20150;-81
2022/03/11 12:19:37;;;;;;;;;;;8.00;34.60;;;;;;6317542;22;19948;-81
2022/03/11 12:22:21;;;;;;;;;;;8.20;34.20;;;;;;6290345;22;19902;-81
2022/03/11 12:25:06;;;;;;;;;;;8.10;33.20;;;;;;6316198;22;19946;-80
2022/03/11 12:27:51;;;;;;;;;;;8.20;34.70;;;;;;6316422;22;20123;-80
2022/03/11 12:30:16;;;;;;;;;;;8.20;33.10;;;;;;6290029;22;19899;-81
2022/03/11 12:32:42;;;;;;;;;;;8.20;32.70;;;;;;6290211;22;19918;-82
2022/03/11 12:35:09;;;;;;;;;;;8.10;32.60;;;;;;6265124;22;19988;-82
2022/03/11 12:37:35;;;;;;;;;;;8.00;33.60;;;;;;6290644;22;20195;-80
2022/03/11 12:40:07;;;;;;;;;;;8.10;33.30;;;;;;6264613;22;19924;-82
2022/03/11 12:42:37;;;;;;;;;;;8.20;33.60;;;;;;6315833;22;19907;-82
2022/03/11 12:45:03;;;;;;;;;;;8.30;32.20;;;;;;6315753;22;19930;-82
2022/03/11 12:47:36;;;;;;;;;;;8.20;33.20;;;;;;6289215;22;20245;-81
2022/03/11 12:50:04;;;;;;;;;;;8.30;33.20;;;;;;6290088;22;19903;-82
2022/03/11 12:52:37;;;;;;;;;;;8.30;33.10;;;;;;6315725;22;19894;-82
2022/03/11 12:55:18;;;;;;;;;;;8.40;32.80;;;;;;6316253;22;19944;-81
2022/03/11 12:57:43;;;;;;;;;;;8.50;32.90;;;;;;6316025;22;19899;-82
2022/03/11 13:00:17;;;;;;;;;;;8.40;32.90;;;;;;6290028;22;20240;-82
2022/03/11 13:02:43;;;;;;;;;;;8.40;32.90;;;;;;6315809;22;19902;-82
2022/03/11 13:05:19;;;;;;;;;;;8.50;33.20;;;;;;6264245;22;19929;-82
2022/03/11 13:07:45;;;;;;;;;;;8.60;32.50;;;;;;6289952;22;20252;-83
2022/03/11 13:10:21;;;;;;;;;;;8.70;32.50;;;;;;6289848;22;19911;-83
2022/03/11 13:12:48;;;;;;;;;;;8.80;32.20;;;;;;6290185;22;19899;-83
2022/03/11 13:15:16;;;;;;;;;;;8.80;32.40;;;;;;6291802;22;20080;-81
2022/03/11 13:17:46;;;;;;;;;;;8.70;32.20;;;;;;6291302;22;19926;-82
2022/03/11 13:20:31;;;;;;;;;;;8.60;32.80;;;;;;6291576;22;19940;-83
2022/03/11 13:22:58;;;;;;;;;;;8.70;32.50;;;;;;6316877;22;19907;-83
2022/03/11 13:25:28;;;;;;;;;;;8.70;32.00;;;;;;6291355;22;19910;-82
2022/03/11 13:27:57;;;;;;;;;;;8.70;32.80;;;;;;6287879;22;20520;-82
2022/03/11 13:30:29;;;;;;;;;;;9.00;32.70;;;;;;6267061;22;19915;-83
2022/03/11 13:32:55;;;;;;;;;;;9.20;32.20;;;;;;6287797;22;19899;-82
2022/03/11 13:35:30;;;;;;;;;;;9.20;31.30;;;;;;6260678;22;20513;-84
2022/03/11 13:38:00;;;;;;;;;;;9.20;30.80;;;;;;6260913;22;19900;-83
2022/03/11 13:40:26;;;;;;;;;;;9.10;31.70;;;;;;6261614;22;19898;-83
2022/03/11 13:42:56;;;;;;;;;;;9.20;31.70;;;;;;6235976;22;19926;-83
2022/03/11 13:45:26;;;;;;;;;;;9.10;31.50;;;;;;6261629;22;19899;-83
2022/03/11 13:48:08;;;;;;;;;;;8.90;31.50;;;;;;6235699;22;19903;-82
2022/03/11 13:50:35;;;;;;;;;;;9.00;31.50;;;;;;6261074;22;19899;-82
2022/03/11 13:53:02;;;;;;;;;;;9.00;31.30;;;;;;6236050;22;19919;-83
2022/03/11 13:55:32;;;;;;;;;;;9.00;31.30;;;;;;6236422;22;20214;-82
2022/03/11 13:58:16;;;;;;;;;;;8.90;31.20;;;;;;6261172;22;19934;-83
2022/03/11 14:00:42;;;;;;;;;;;8.90;30.70;;;;;;6261669;22;20149;-82
2022/03/11 14:03:14;;;;;;;;;;;8.80;31.00;;;;;;6261551;22;19899;-83
2022/03/11 14:05:43;;;;;;;;;;;8.90;31.50;;;;;;6239427;22;20099;-82
2022/03/11 14:08:08;;;;;;;;;;;9.00;31.70;;;;;;6262188;22;19895;-83
2022/03/11 14:10:35;;;;;;;;;;;9.10;31.10;;;;;;6287991;22;19899;-82
2022/03/11 14:13:03;;;;;;;;;;;9.20;30.90;;;;;;6262011;22;19899;-83
2022/03/11 14:15:34;;;;;;;;;;;9.10;30.40;;;;;;6262229;22;19921;-83
2022/03/11 14:18:00;;;;;;;;;;;9.10;30.80;;;;;;6262220;22;19906;-81
2022/03/11 14:20:26;;;;;;;;;;;9.20;30.50;;;;;;6262515;22;19903;-83
2022/03/11 14:22:51;;;;;;;;;;;9.10;30.80;;;;;;6262411;22;19945;-83
2022/03/11 14:25:17;;;;;;;;;;;9.00;30.80;;;;;;6262660;22;19899;-83
2022/03/11 14:27:43;;;;;;;;;;;8.90;32.20;;;;;;6262439;22;19903;-82
2022/03/11 14:30:08;;;;;;;;;;;9.10;31.30;;;;;;6298175;22;19915;-83
2022/03/11 14:32:35;;;;;;;;;;;9.20;31.00;;;;;;6272682;22;19946;-83
2022/03/11 14:35:02;;;;;;;;;;;9.10;30.60;;;;;;6297935;22;19900;-83
2022/03/11 14:37:27;;;;;;;;;;;9.10;30.80;;;;;;6272089;22;19903;-83
2022/03/11 14:39:53;;;;;;;;;;;9.00;31.10;;;;;;6272295;22;19910;-83
2022/03/11 14:42:20;;;;;;;;;;;8.80;30.70;;;;;;6271361;22;19907;-83
2022/03/11 14:44:45;;;;;;;;;;;8.80;31.40;;;;;;6300477;22;19921;-82
2022/03/11 14:47:13;;;;;;;;;;;8.80;31.20;;;;;;6272911;22;19907;-83
2022/03/11 14:49:43;;;;;;;;;;;8.90;31.80;;;;;;6270349;22;19903;-83
2022/03/11 14:52:09;;;;;;;;;;;9.00;32.10;;;;;;6265832;22;19899;-84
2022/03/11 14:54:34;;;;;;;;;;;9.20;31.20;;;;;;6261894;22;19930;-83
2022/03/11 14:57:00;;;;;;;;;;;9.30;31.10;;;;;;6265304;22;19914;-83
2022/03/11 14:59:28;;;;;;;;;;;9.30;30.90;;;;;;6279526;22;19911;-83
2022/03/11 15:01:54;;;;;;;;;;;9.30;30.90;;;;;;6304456;22;19922;-84
2022/03/11 15:04:21;;;;;;;;;;;9.50;31.20;;;;;;6277368;22;19891;-84
2022/03/11 15:06:47;;;;;;;;;;;9.30;30.30;;;;;;6266895;22;19907;-82
2022/03/11 15:09:13;;;;;;;;;;;9.20;30.40;;;;;;6287139;22;19899;-82
2022/03/11 15:11:39;;;;;;;;;;;9.10;30.00;;;;;;6261319;22;19904;-84
2022/03/11 15:14:05;;;;;;;;;;;9.10;30.80;;;;;;6261177;22;19899;-83
2022/03/11 15:16:31;;;;;;;;;;;9.20;29.90;;;;;;6286558;22;19898;-82
2022/03/11 15:18:57;;;;;;;;;;;9.00;30.20;;;;;;6286188;22;20094;-83
2022/03/11 15:21:23;;;;;;;;;;;9.00;30.20;;;;;;6286407;22;20135;-83
2022/03/11 15:23:48;;;;;;;;;;;8.90;30.80;;;;;;6260853;22;19910;-83
2022/03/11 15:26:14;;;;;;;;;;;9.10;30.30;;;;;;6260950;22;19903;-82
2022/03/11 15:28:40;;;;;;;;;;;9.00;30.70;;;;;;6290604;22;19911;-83
2022/03/11 15:31:05;;;;;;;;;;;9.00;30.50;;;;;;6290565;22;20102;-83
2022/03/11 15:33:31;;;;;;;;;;;8.90;30.40;;;;;;6290753;22;20011;-83
2022/03/11 15:35:57;;;;;;;;;;;8.70;30.00;;;;;;6239355;22;19903;-84
2022/03/11 15:38:23;;;;;;;;;;;8.50;30.10;;;;;;6316093;22;19914;-83
2022/03/11 15:40:48;;;;;;;;;;;8.50;30.10;;;;;;6290423;22;19903;-83
2022/03/11 15:43:14;;;;;;;;;;;8.40;30.70;;;;;;6264800;22;19902;-83
2022/03/11 15:45:41;;;;;;;;;;;8.60;31.00;;;;;;6290778;22;19974;-83
2022/03/11 15:48:08;;;;;;;;;;;8.70;30.60;;;;;;6290334;22;19902;-83
2022/03/11 15:50:35;;;;;;;;;;;8.60;30.60;;;;;;6290332;22;19945;-82
2022/03/11 15:53:01;;;;;;;;;;;8.70;30.30;;;;;;6290476;22;19934;-83
2022/03/11 15:55:27;;;;;;;;;;;8.70;30.60;;;;;;6290797;22;19910;-82
2022/03/11 15:57:53;;;;;;;;;;;8.70;30.60;;;;;;6290260;22;20187;-83
2022/03/11 16:00:19;;;;;;;;;;;8.50;30.00;;;;;;6240761;22;19930;-82
2022/03/11 16:02:46;;;;;;;;;;;8.10;30.30;;;;;;6260409;22;19910;-81
2022/03/11 16:05:14;;;;;;;;;;;7.60;30.90;;;;;;6286576;22;19903;-82
2022/03/11 16:07:41;;;;;;;;;;;7.20;31.40;;;;;;6260396;22;19910;-82
2022/03/11 16:10:12;;;;;;;;;;;6.90;31.40;;;;;;6261734;22;19906;-82
2022/03/11 16:12:39;;;;;;;;;;;6.60;32.00;;;;;;6285955;22;19929;-81
2022/03/11 16:15:05;;;;;;;;;;;6.40;32.30;;;;;;6285193;22;19923;-83
2022/03/11 16:17:31;;;;;;;;;;;6.20;32.30;;;;;;6234320;22;19925;-83
2022/03/11 16:19:58;;;;;;;;;;;6.10;33.30;;;;;;6234577;22;19903;-83
2022/03/11 16:22:24;;;;;;;;;;;6.00;32.90;;;;;;6234564;22;20277;-83
2022/03/11 16:24:51;;;;;;;;;;;5.90;33.10;;;;;;6234004;22;19899;-83
2022/03/11 16:27:19;;;;;;;;;;;5.80;33.50;;;;;;6234240;22;20169;-83
2022/03/11 16:29:45;;;;;;;;;;;5.70;33.20;;;;;;6284530;22;19954;-83
2022/03/11 16:32:11;;;;;;;;;;;5.60;33.20;;;;;;6234164;22;19903;-83
2022/03/11 16:34:37;;;;;;;;;;;5.50;33.50;;;;;;6259517;22;20123;-82
2022/03/11 16:37:05;;;;;;;;;;;5.40;33.80;;;;;;6233982;22;19935;-83
2022/03/11 16:39:31;;;;;;;;;;;5.40;34.30;;;;;;6285020;22;20195;-83
2022/03/11 16:41:56;;;;;;;;;;;5.30;34.50;;;;;;6234292;22;19913;-81
2022/03/11 16:44:22;;;;;;;;;;;5.20;34.90;;;;;;6234643;22;19911;-83
2022/03/11 16:46:48;;;;;;;;;;;5.10;34.90;;;;;;6255042;22;19903;-82
2022/03/11 16:49:14;;;;;;;;;;;5.00;34.90;;;;;;6288069;22;20182;-83
2022/03/11 16:51:40;;;;;;;;;;;5.00;34.90;;;;;;6262060;22;19910;-82
2022/03/11 16:54:06;;;;;;;;;;;4.90;34.90;;;;;;6262575;22;20190;-82
2022/03/11 16:56:31;;;;;;;;;;;4.80;34.80;;;;;;6262310;22;19927;-83
2022/03/11 16:58:58;;;;;;;;;;;4.70;35.20;;;;;;6262349;22;19903;-82
2022/03/11 17:01:23;;;;;;;;;;;4.70;35.60;;;;;;6262256;22;19929;-82
2022/03/11 17:03:49;;;;;;;;;;;4.60;35.60;;;;;;6262006;22;19926;-83
2022/03/11 17:06:14;;;;;;;;;;;4.50;35.80;;;;;;6262221;22;19909;-83
2022/03/11 17:08:40;;;;;;;;;;;4.40;36.10;;;;;;6262109;22;19903;-82
2022/03/11 17:11:06;;;;;;;;;;;4.40;36.40;;;;;;6262013;22;19910;-81
2022/03/11 17:13:31;;;;;;;;;;;4.20;36.70;;;;;;6261918;22;19926;-82
2022/03/11 17:15:57;;;;;;;;;;;4.10;36.80;;;;;;6262281;22;19918;-82
2022/03/11 17:18:23;;;;;;;;;;;4.20;37.20;;;;;;6262239;22;19950;-81
2022/03/11 17:20:49;;;;;;;;;;;4.10;37.20;;;;;;6262659;22;19914;-82
2022/03/11 17:23:14;;;;;;;;;;;4.00;37.30;;;;;;6262332;22;20195;-82
2022/03/11 17:25:41;;;;;;;;;;;4.00;37.60;;;;;;6262315;22;19906;-81
2022/03/11 17:28:07;;;;;;;;;;;3.90;37.80;;;;;;6287861;22;19918;-82
2022/03/11 17:30:34;;;;;;;;;;;3.90;37.90;;;;;;6287316;22;19990;-82
2022/03/11 17:33:00;;;;;;;;;;;3.80;38.00;;;;;;6262403;22;19905;-81
2022/03/11 17:35:26;;;;;;;;;;;3.70;38.00;;;;;;6261652;22;19918;-83
2022/03/11 17:37:52;;;;;;;;;;;3.70;38.20;;;;;;6286119;22;20094;-82
2022/03/11 17:40:18;;;;;;;;;;;3.60;38.40;;;;;;6287343;22;19922;-82
2022/03/11 17:42:44;;;;;;;;;;;3.50;38.40;;;;;;6261669;22;19907;-82
2022/03/11 17:45:11;;;;;;;;;;;3.50;38.60;;;;;;6261360;22;19949;-83
2022/03/11 17:47:37;;;;;;;;;;;3.50;38.60;;;;;;6261603;22;19910;-82
2022/03/11 17:50:04;;;;;;;;;;;3.40;38.70;;;;;;6287168;22;20225;-82
2022/03/11 17:52:30;;;;;;;;;;;3.40;39.00;;;;;;6286673;22;19906;-82
2022/03/11 17:54:56;;;;;;;;;;;3.30;39.20;;;;;;6286160;22;19915;-82
2022/03/11 17:57:23;;;;;;;;;;;3.20;39.30;;;;;;6261942;22;19946;-82
2022/03/11 17:59:48;;;;;;;;;;;3.20;39.60;;;;;;6262254;22;19903;-83
2022/03/11 18:02:14;;;;;;;;;;;3.10;39.80;;;;;;6261635;22;19978;-81
2022/03/11 18:04:40;;;;;;;;;;;3.00;39.90;;;;;;6261902;22;19945;-81
2022/03/11 18:07:06;;;;;;;;;;;2.90;40.10;;;;;;6261618;22;19903;-81
2022/03/11 18:09:31;;;;;;;;;;;2.80;40.40;;;;;;6287220;22;20183;-82
2022/03/11 18:11:58;;;;;;;;;;;2.70;40.40;;;;;;6261491;22;19913;-82